sensor_id;sensor_type;location;lat;lon;timestamp;temperature;humidity
64652;HTU21D;51062;45.120;37.660;2022-12-24T00:02:22;0.65;77.29
64652;HTU21D;51062;45.120;37.660;2022-12-24T00:04:48;0.62;77.27
64652;HTU21D;51062;45.120;37.660;2022-12-24T00:07:14;0.60;77.34
64652;HTU21D;51062;45.120;37.660;2022-12-24T00:09:40;0.61;77.35
64652;HTU21D;51062;45.120;37.660;2022-12-24T00:12:06;0.60;77.29
64652;HTU21D;51062;45.120;37.660;2022-12-24T00:14:33;0.61;77.24
64652;HTU21D;51062;45.120;37.660;2022-12-24T00:16:58;0.61;77.21
64652;HTU21D;51062;45.120;37.660;2022-12-24T00:19:25;0.57;77.15
64652;HTU21D;51062;45.120;37.660;2022-12-24T00:21:51;0.52;77.23
64652;HTU21D;51062;45.120;37.660;2022-12-24T00:24:17;0.46;77.31
64652;HTU21D;51062;45.120;37.660;2022-12-24T00:26:43;0.39;77.44
64652;HTU21D;51062;45.120;37.660;2022-12-24T00:29:10;0.37;77.53
64652;HTU21D;51062;45.120;37.660;2022-12-24T00:31:36;0.33;77.55
64652;HTU21D;51062;45.120;37.660;2022-12-24T00:34:02;0.30;77.57
64652;HTU21D;51062;45.120;37.660;2022-12-24T00:36:29;0.27;77.63
64652;HTU21D;51062;45.120;37.660;2022-12-24T00:38:55;0.24;77.53
64652;HTU21D;51062;45.120;37.660;2022-12-24T00:41:21;0.22;77.40
64652;HTU21D;51062;45.120;37.660;2022-12-24T00:46:20;0.18;77.30
64652;HTU21D;51062;45.120;37.660;2022-12-24T00:48:47;0.13;77.37
64652;HTU21D;51062;45.120;37.660;2022-12-24T00:51:14;0.14;77.47
64652;HTU21D;51062;45.120;37.660;2022-12-24T00:53:40;0.15;77.47
64652;HTU21D;51062;45.120;37.660;2022-12-24T00:56:06;0.15;77.41
64652;HTU21D;51062;45.120;37.660;2022-12-24T00:58:34;0.15;77.44
64652;HTU21D;51062;45.120;37.660;2022-12-24T01:01:00;0.16;77.40
64652;HTU21D;51062;45.120;37.660;2022-12-24T01:03:27;0.18;77.33
64652;HTU21D;51062;45.120;37.660;2022-12-24T01:06:11;0.17;77.21
64652;HTU21D;51062;45.120;37.660;2022-12-24T01:08:37;0.17;77.11
64652;HTU21D;51062;45.120;37.660;2022-12-24T01:11:05;0.17;77.10
64652;HTU21D;51062;45.120;37.660;2022-12-24T01:13:32;0.17;77.09
64652;HTU21D;51062;45.120;37.660;2022-12-24T01:15:58;0.17;77.01
64652;HTU21D;51062;45.120;37.660;2022-12-24T01:18:24;0.14;77.05
64652;HTU21D;51062;45.120;37.660;2022-12-24T01:20:59;0.09;77.21
64652;HTU21D;51062;45.120;37.660;2022-12-24T01:23:25;0.07;77.27
64652;HTU21D;51062;45.120;37.660;2022-12-24T01:25:52;0.03;77.34
64652;HTU21D;51062;45.120;37.660;2022-12-24T01:28:19;0.02;77.35
64652;HTU21D;51062;45.120;37.660;2022-12-24T01:30:47;0.01;77.31
64652;HTU21D;51062;45.120;37.660;2022-12-24T01:33:13;-0.00;77.30
64652;HTU21D;51062;45.120;37.660;2022-12-24T01:35:40;0.02;77.34
64652;HTU21D;51062;45.120;37.660;2022-12-24T01:38:08;0.05;77.31
64652;HTU21D;51062;45.120;37.660;2022-12-24T01:40:34;0.07;77.35
64652;HTU21D;51062;45.120;37.660;2022-12-24T01:43:20;0.13;77.36
64652;HTU21D;51062;45.120;37.660;2022-12-24T01:48:53;0.14;77.33
64652;HTU21D;51062;45.120;37.660;2022-12-24T01:51:41;0.14;77.27
64652;HTU21D;51062;45.120;37.660;2022-12-24T01:54:17;0.14;77.24
64652;HTU21D;51062;45.120;37.660;2022-12-24T01:56:49;0.14;77.17
64652;HTU21D;51062;45.120;37.660;2022-12-24T01:59:17;0.12;77.05
64652;HTU21D;51062;45.120;37.660;2022-12-24T02:01:46;0.06;77.05
64652;HTU21D;51062;45.120;37.660;2022-12-24T02:04:20;0.04;77.11
64652;HTU21D;51062;45.120;37.660;2022-12-24T02:06:49;0.06;77.16
64652;HTU21D;51062;45.120;37.660;2022-12-24T02:09:15;0.06;77.24
64652;HTU21D;51062;45.120;37.660;2022-12-24T02:11:41;0.09;77.34
64652;HTU21D;51062;45.120;37.660;2022-12-24T02:14:10;0.12;77.44
64652;HTU21D;51062;45.120;37.660;2022-12-24T02:22:23;0.25;77.53
64652;HTU21D;51062;45.120;37.660;2022-12-24T02:30:45;0.39;77.53
64652;HTU21D;51062;45.120;37.660;2022-12-24T02:33:23;0.38;77.47
64652;HTU21D;51062;45.120;37.660;2022-12-24T02:36:04;0.38;77.56
64652;HTU21D;51062;45.120;37.660;2022-12-24T02:41:29;0.37;77.62
64652;HTU21D;51062;45.120;37.660;2022-12-24T02:44:18;0.42;77.63
64652;HTU21D;51062;45.120;37.660;2022-12-24T02:46:46;0.40;77.57
64652;HTU21D;51062;45.120;37.660;2022-12-24T02:49:13;0.44;77.56
64652;HTU21D;51062;45.120;37.660;2022-12-24T02:51:39;0.43;77.46
64652;HTU21D;51062;45.120;37.660;2022-12-24T02:54:05;0.38;77.49
64652;HTU21D;51062;45.120;37.660;2022-12-24T02:56:58;0.35;77.63
64652;HTU21D;51062;45.120;37.660;2022-12-24T03:08:03;0.21;77.63
64652;HTU21D;51062;45.120;37.660;2022-12-24T03:10:56;0.20;77.74
64652;HTU21D;51062;45.120;37.660;2022-12-24T03:13:23;0.21;77.73
64652;HTU21D;51062;45.120;37.660;2022-12-24T03:15:51;0.22;77.75
64652;HTU21D;51062;45.120;37.660;2022-12-24T03:18:21;0.23;77.80
64652;HTU21D;51062;45.120;37.660;2022-12-24T03:21:05;0.28;77.85
64652;HTU21D;51062;45.120;37.660;2022-12-24T03:23:33;0.29;77.79
64652;HTU21D;51062;45.120;37.660;2022-12-24T03:26:05;0.29;77.74
64652;HTU21D;51062;45.120;37.660;2022-12-24T03:28:32;0.28;77.79
64652;HTU21D;51062;45.120;37.660;2022-12-24T03:31:01;0.28;77.85
64652;HTU21D;51062;45.120;37.660;2022-12-24T03:33:28;0.31;77.98
64652;HTU21D;51062;45.120;37.660;2022-12-24T03:35:55;0.37;77.97
64652;HTU21D;51062;45.120;37.660;2022-12-24T03:38:21;0.44;78.01
64652;HTU21D;51062;45.120;37.660;2022-12-24T03:40:48;0.51;78.01
64652;HTU21D;51062;45.120;37.660;2022-12-24T03:43:14;0.59;78.00
64652;HTU21D;51062;45.120;37.660;2022-12-24T03:45:40;0.65;78.01
64652;HTU21D;51062;45.120;37.660;2022-12-24T03:48:06;0.74;77.95
64652;HTU21D;51062;45.120;37.660;2022-12-24T03:50:32;0.80;77.87
64652;HTU21D;51062;45.120;37.660;2022-12-24T03:52:58;0.86;77.88
64652;HTU21D;51062;45.120;37.660;2022-12-24T03:55:24;0.92;77.69
64652;HTU21D;51062;45.120;37.660;2022-12-24T03:57:50;0.94;77.69
64652;HTU21D;51062;45.120;37.660;2022-12-24T04:00:17;1.02;77.72
64652;HTU21D;51062;45.120;37.660;2022-12-24T04:02:43;1.09;77.66
64652;HTU21D;51062;45.120;37.660;2022-12-24T04:05:14;1.17;77.65
64652;HTU21D;51062;45.120;37.660;2022-12-24T04:07:42;1.25;77.56
64652;HTU21D;51062;45.120;37.660;2022-12-24T04:10:09;1.35;77.50
64652;HTU21D;51062;45.120;37.660;2022-12-24T04:12:36;1.43;77.41
64652;HTU21D;51062;45.120;37.660;2022-12-24T04:15:03;1.50;77.30
64652;HTU21D;51062;45.120;37.660;2022-12-24T04:17:29;1.55;77.24
64652;HTU21D;51062;45.120;37.660;2022-12-24T04:19:55;1.60;77.28
64652;HTU21D;51062;45.120;37.660;2022-12-24T04:22:21;1.64;77.30
64652;HTU21D;51062;45.120;37.660;2022-12-24T04:24:47;1.70;77.21
64652;HTU21D;51062;45.120;37.660;2022-12-24T04:27:14;1.73;77.21
64652;HTU21D;51062;45.120;37.660;2022-12-24T04:29:40;1.75;77.18
64652;HTU21D;51062;45.120;37.660;2022-12-24T04:32:06;1.77;77.20
64652;HTU21D;51062;45.120;37.660;2022-12-24T04:34:33;1.79;77.22
64652;HTU21D;51062;45.120;37.660;2022-12-24T04:36:59;1.82;77.20
64652;HTU21D;51062;45.120;37.660;2022-12-24T04:39:25;1.84;77.11
64652;HTU21D;51062;45.120;37.660;2022-12-24T04:41:51;1.86;77.02
64652;HTU21D;51062;45.120;37.660;2022-12-24T04:44:17;1.85;76.92
64652;HTU21D;51062;45.120;37.660;2022-12-24T04:46:43;1.82;76.86
64652;HTU21D;51062;45.120;37.660;2022-12-24T04:49:10;1.78;76.79
64652;HTU21D;51062;45.120;37.660;2022-12-24T04:51:36;1.70;76.92
64652;HTU21D;51062;45.120;37.660;2022-12-24T04:54:02;1.68;76.89
64652;HTU21D;51062;45.120;37.660;2022-12-24T04:56:30;1.63;77.01
64652;HTU21D;51062;45.120;37.660;2022-12-24T04:58:58;1.60;77.11
64652;HTU21D;51062;45.120;37.660;2022-12-24T05:01:27;1.60;77.14
64652;HTU21D;51062;45.120;37.660;2022-12-24T05:03:54;1.61;77.10
64652;HTU21D;51062;45.120;37.660;2022-12-24T05:06:23;1.62;77.04
64652;HTU21D;51062;45.120;37.660;2022-12-24T05:08:53;1.61;76.96
64652;HTU21D;51062;45.120;37.660;2022-12-24T05:11:20;1.61;76.88
64652;HTU21D;51062;45.120;37.660;2022-12-24T05:13:46;1.57;76.89
64652;HTU21D;51062;45.120;37.660;2022-12-24T05:16:12;1.54;77.08
64652;HTU21D;51062;45.120;37.660;2022-12-24T05:18:39;1.50;77.20
64652;HTU21D;51062;45.120;37.660;2022-12-24T05:21:09;1.48;77.24
64652;HTU21D;51062;45.120;37.660;2022-12-24T05:23:37;1.45;77.29
64652;HTU21D;51062;45.120;37.660;2022-12-24T05:26:32;1.39;77.40
64652;HTU21D;51062;45.120;37.660;2022-12-24T05:29:00;1.40;77.48
64652;HTU21D;51062;45.120;37.660;2022-12-24T05:31:28;1.40;77.59
64652;HTU21D;51062;45.120;37.660;2022-12-24T05:33:54;1.45;77.69
64652;HTU21D;51062;45.120;37.660;2022-12-24T05:36:22;1.50;77.61
64652;HTU21D;51062;45.120;37.660;2022-12-24T05:38:49;1.53;77.56
64652;HTU21D;51062;45.120;37.660;2022-12-24T05:41:15;1.60;77.56
64652;HTU21D;51062;45.120;37.660;2022-12-24T05:43:41;1.65;77.54
64652;HTU21D;51062;45.120;37.660;2022-12-24T05:46:10;1.71;77.61
64652;HTU21D;51062;45.120;37.660;2022-12-24T05:48:36;1.80;77.59
64652;HTU21D;51062;45.120;37.660;2022-12-24T05:51:05;1.90;77.50
64652;HTU21D;51062;45.120;37.660;2022-12-24T05:53:32;1.99;77.41
64652;HTU21D;51062;45.120;37.660;2022-12-24T05:56:07;2.03;77.42
64652;HTU21D;51062;45.120;37.660;2022-12-24T05:58:34;2.11;77.35
64652;HTU21D;51062;45.120;37.660;2022-12-24T06:01:01;2.19;77.21
64652;HTU21D;51062;45.120;37.660;2022-12-24T06:03:30;2.24;77.08
64652;HTU21D;51062;45.120;37.660;2022-12-24T06:06:04;2.24;76.94
64652;HTU21D;51062;45.120;37.660;2022-12-24T06:08:31;2.26;76.92
64652;HTU21D;51062;45.120;37.660;2022-12-24T06:10:59;2.28;77.03
64652;HTU21D;51062;45.120;37.660;2022-12-24T06:13:26;2.30;77.00
64652;HTU21D;51062;45.120;37.660;2022-12-24T06:16:00;2.30;76.98
64652;HTU21D;51062;45.120;37.660;2022-12-24T06:18:29;2.30;77.05
64652;HTU21D;51062;45.120;37.660;2022-12-24T06:20:56;2.29;77.05
64652;HTU21D;51062;45.120;37.660;2022-12-24T06:23:23;2.25;77.07
64652;HTU21D;51062;45.120;37.660;2022-12-24T06:25:50;2.23;77.09
64652;HTU21D;51062;45.120;37.660;2022-12-24T06:28:16;2.20;77.13
64652;HTU21D;51062;45.120;37.660;2022-12-24T06:30:47;2.20;77.21
64652;HTU21D;51062;45.120;37.660;2022-12-24T06:33:13;2.22;77.28
64652;HTU21D;51062;45.120;37.660;2022-12-24T06:35:40;2.25;77.32
64652;HTU21D;51062;45.120;37.660;2022-12-24T06:38:06;2.30;77.27
64652;HTU21D;51062;45.120;37.660;2022-12-24T06:40:32;2.37;77.29
64652;HTU21D;51062;45.120;37.660;2022-12-24T06:42:58;2.45;77.15
64652;HTU21D;51062;45.120;37.660;2022-12-24T06:45:24;2.49;77.09
64652;HTU21D;51062;45.120;37.660;2022-12-24T06:47:50;2.53;77.01
64652;HTU21D;51062;45.120;37.660;2022-12-24T06:50:16;2.57;77.05
64652;HTU21D;51062;45.120;37.660;2022-12-24T06:52:42;2.58;76.99
64652;HTU21D;51062;45.120;37.660;2022-12-24T06:55:09;2.59;77.00
64652;HTU21D;51062;45.120;37.660;2022-12-24T06:57:35;2.60;77.02
64652;HTU21D;51062;45.120;37.660;2022-12-24T07:00:01;2.57;77.05
64652;HTU21D;51062;45.120;37.660;2022-12-24T07:02:27;2.59;77.06
64652;HTU21D;51062;45.120;37.660;2022-12-24T07:04:53;2.61;77.11
64652;HTU21D;51062;45.120;37.660;2022-12-24T07:07:19;2.65;77.10
64652;HTU21D;51062;45.120;37.660;2022-12-24T07:09:45;2.67;77.01
64652;HTU21D;51062;45.120;37.660;2022-12-24T07:12:11;2.69;77.10
64652;HTU21D;51062;45.120;37.660;2022-12-24T07:14:37;2.75;76.95
64652;HTU21D;51062;45.120;37.660;2022-12-24T07:17:03;2.76;76.90
64652;HTU21D;51062;45.120;37.660;2022-12-24T07:19:29;2.76;76.82
64652;HTU21D;51062;45.120;37.660;2022-12-24T07:21:55;2.70;76.86
64652;HTU21D;51062;45.120;37.660;2022-12-24T07:24:21;2.67;77.15
64652;HTU21D;51062;45.120;37.660;2022-12-24T07:26:47;2.64;77.14
64652;HTU21D;51062;45.120;37.660;2022-12-24T07:29:13;2.58;77.18
64652;HTU21D;51062;45.120;37.660;2022-12-24T07:31:39;2.50;77.27
64652;HTU21D;51062;45.120;37.660;2022-12-24T07:34:06;2.49;77.47
64652;HTU21D;51062;45.120;37.660;2022-12-24T07:36:32;2.54;77.51
64652;HTU21D;51062;45.120;37.660;2022-12-24T07:38:58;2.57;77.51
64652;HTU21D;51062;45.120;37.660;2022-12-24T07:41:24;2.57;77.56
64652;HTU21D;51062;45.120;37.660;2022-12-24T07:43:50;2.58;77.70
64652;HTU21D;51062;45.120;37.660;2022-12-24T07:46:16;2.65;77.72
64652;HTU21D;51062;45.120;37.660;2022-12-24T07:48:42;2.69;77.75
64652;HTU21D;51062;45.120;37.660;2022-12-24T07:51:08;2.75;77.79
64652;HTU21D;51062;45.120;37.660;2022-12-24T07:53:34;2.86;77.79
64652;HTU21D;51062;45.120;37.660;2022-12-24T07:56:00;2.96;77.68
64652;HTU21D;51062;45.120;37.660;2022-12-24T07:58:27;3.01;77.63
64652;HTU21D;51062;45.120;37.660;2022-12-24T08:00:59;3.08;77.56
64652;HTU21D;51062;45.120;37.660;2022-12-24T08:03:26;3.12;77.53
64652;HTU21D;51062;45.120;37.660;2022-12-24T08:05:52;3.16;77.47
64652;HTU21D;51062;45.120;37.660;2022-12-24T08:08:19;3.20;77.47
64652;HTU21D;51062;45.120;37.660;2022-12-24T08:10:45;3.26;77.46
64652;HTU21D;51062;45.120;37.660;2022-12-24T08:13:13;3.28;77.46
64652;HTU21D;51062;45.120;37.660;2022-12-24T08:15:39;3.31;77.43
64652;HTU21D;51062;45.120;37.660;2022-12-24T08:18:05;3.30;77.26
64652;HTU21D;51062;45.120;37.660;2022-12-24T08:20:31;3.23;77.31
64652;HTU21D;51062;45.120;37.660;2022-12-24T08:22:57;3.23;77.48
64652;HTU21D;51062;45.120;37.660;2022-12-24T08:25:23;3.24;77.52
64652;HTU21D;51062;45.120;37.660;2022-12-24T08:27:50;3.25;77.53
64652;HTU21D;51062;45.120;37.660;2022-12-24T08:30:16;3.27;77.59
64652;HTU21D;51062;45.120;37.660;2022-12-24T08:32:42;3.30;77.63
64652;HTU21D;51062;45.120;37.660;2022-12-24T08:35:08;3.36;77.61
64652;HTU21D;51062;45.120;37.660;2022-12-24T08:37:34;3.46;77.58
64652;HTU21D;51062;45.120;37.660;2022-12-24T08:40:00;3.59;77.51
64652;HTU21D;51062;45.120;37.660;2022-12-24T08:42:26;3.74;77.47
64652;HTU21D;51062;45.120;37.660;2022-12-24T08:44:52;3.89;77.38
64652;HTU21D;51062;45.120;37.660;2022-12-24T08:47:19;3.99;77.26
64652;HTU21D;51062;45.120;37.660;2022-12-24T08:49:45;4.08;77.15
64652;HTU21D;51062;45.120;37.660;2022-12-24T08:52:11;4.21;77.07
64652;HTU21D;51062;45.120;37.660;2022-12-24T08:54:37;4.28;76.98
64652;HTU21D;51062;45.120;37.660;2022-12-24T08:57:03;4.29;76.92
64652;HTU21D;51062;45.120;37.660;2022-12-24T08:59:29;4.27;77.00
64652;HTU21D;51062;45.120;37.660;2022-12-24T09:01:55;4.30;76.98
64652;HTU21D;51062;45.120;37.660;2022-12-24T09:04:21;4.30;77.02
64652;HTU21D;51062;45.120;37.660;2022-12-24T09:06:47;4.33;77.00
64652;HTU21D;51062;45.120;37.660;2022-12-24T09:09:13;4.36;77.11
64652;HTU21D;51062;45.120;37.660;2022-12-24T09:11:39;4.41;77.15
64652;HTU21D;51062;45.120;37.660;2022-12-24T09:14:05;4.44;77.15
64652;HTU21D;51062;45.120;37.660;2022-12-24T09:16:31;4.49;77.21
64652;HTU21D;51062;45.120;37.660;2022-12-24T09:18:58;4.59;77.21
64652;HTU21D;51062;45.120;37.660;2022-12-24T09:21:24;4.68;77.18
64652;HTU21D;51062;45.120;37.660;2022-12-24T09:23:50;4.77;77.05
64652;HTU21D;51062;45.120;37.660;2022-12-24T09:26:26;4.81;76.98
64652;HTU21D;51062;45.120;37.660;2022-12-24T09:28:56;4.84;77.02
64652;HTU21D;51062;45.120;37.660;2022-12-24T09:31:23;4.89;76.98
64652;HTU21D;51062;45.120;37.660;2022-12-24T09:33:49;4.90;76.95
64652;HTU21D;51062;45.120;37.660;2022-12-24T09:36:16;4.93;77.00
64652;HTU21D;51062;45.120;37.660;2022-12-24T09:38:43;4.98;77.01
64652;HTU21D;51062;45.120;37.660;2022-12-24T09:44:19;5.09;76.93
64652;HTU21D;51062;45.120;37.660;2022-12-24T09:46:51;5.16;76.93
64652;HTU21D;51062;45.120;37.660;2022-12-24T09:49:21;5.31;76.87
64652;HTU21D;51062;45.120;37.660;2022-12-24T09:51:58;5.46;76.76
64652;HTU21D;51062;45.120;37.660;2022-12-24T09:54:32;5.53;76.71
64652;HTU21D;51062;45.120;37.660;2022-12-24T09:57:05;5.57;76.69
64652;HTU21D;51062;45.120;37.660;2022-12-24T09:59:44;5.61;76.67
64652;HTU21D;51062;45.120;37.660;2022-12-24T10:02:14;5.67;76.67
64652;HTU21D;51062;45.120;37.660;2022-12-24T10:04:42;5.74;76.62
64652;HTU21D;51062;45.120;37.660;2022-12-24T10:15:45;5.90;76.44
64652;HTU21D;51062;45.120;37.660;2022-12-24T10:18:26;5.89;76.39
64652;HTU21D;51062;45.120;37.660;2022-12-24T10:27:13;5.75;76.74
64652;HTU21D;51062;45.120;37.660;2022-12-24T10:29:48;5.78;76.84
64652;HTU21D;51062;45.120;37.660;2022-12-24T10:34:44;5.95;76.84
64652;HTU21D;51062;45.120;37.660;2022-12-24T10:37:15;6.07;76.77
64652;HTU21D;51062;45.120;37.660;2022-12-24T10:39:42;6.16;76.79
64652;HTU21D;51062;45.120;37.660;2022-12-24T10:42:10;6.22;76.73
64652;HTU21D;51062;45.120;37.660;2022-12-24T10:44:38;6.29;76.69
64652;HTU21D;51062;45.120;37.660;2022-12-24T10:47:06;6.34;76.62
64652;HTU21D;51062;45.120;37.660;2022-12-24T10:49:52;6.35;76.59
64652;HTU21D;51062;45.120;37.660;2022-12-24T10:52:24;6.39;76.54
64652;HTU21D;51062;45.120;37.660;2022-12-24T10:57:36;6.45;76.55
64652;HTU21D;51062;45.120;37.660;2022-12-24T11:00:05;6.48;76.55
64652;HTU21D;51062;45.120;37.660;2022-12-24T11:02:38;6.51;76.56
64652;HTU21D;51062;45.120;37.660;2022-12-24T11:05:29;6.54;76.55
64652;HTU21D;51062;45.120;37.660;2022-12-24T11:08:18;6.59;76.55
64652;HTU21D;51062;45.120;37.660;2022-12-24T11:11:00;6.61;76.53
64652;HTU21D;51062;45.120;37.660;2022-12-24T11:13:32;6.68;76.52
64652;HTU21D;51062;45.120;37.660;2022-12-24T11:16:25;6.72;76.54
64652;HTU21D;51062;45.120;37.660;2022-12-24T11:18:55;6.78;76.48
64652;HTU21D;51062;45.120;37.660;2022-12-24T11:21:23;6.81;76.47
64652;HTU21D;51062;45.120;37.660;2022-12-24T11:26:38;6.82;76.41
64652;HTU21D;51062;45.120;37.660;2022-12-24T11:31:36;6.79;76.39
64652;HTU21D;51062;45.120;37.660;2022-12-24T11:34:28;6.78;76.42
64652;HTU21D;51062;45.120;37.660;2022-12-24T11:37:08;6.73;76.39
64652;HTU21D;51062;45.120;37.660;2022-12-24T11:39:47;6.70;76.41
64652;HTU21D;51062;45.120;37.660;2022-12-24T11:44:59;6.61;76.43
64652;HTU21D;51062;45.120;37.660;2022-12-24T11:47:37;6.58;76.47
64652;HTU21D;51062;45.120;37.660;2022-12-24T12:00:45;6.51;76.60
64652;HTU21D;51062;45.120;37.660;2022-12-24T12:03:29;6.51;76.61
64652;HTU21D;51062;45.120;37.660;2022-12-24T12:05:58;6.53;76.60
64652;HTU21D;51062;45.120;37.660;2022-12-24T12:08:25;6.53;76.62
64652;HTU21D;51062;45.120;37.660;2022-12-24T12:10:53;6.54;76.62
64652;HTU21D;51062;45.120;37.660;2022-12-24T12:13:31;6.56;76.61
64652;HTU21D;51062;45.120;37.660;2022-12-24T12:19:23;6.59;76.61
64652;HTU21D;51062;45.120;37.660;2022-12-24T12:21:51;6.60;76.60
64652;HTU21D;51062;45.120;37.660;2022-12-24T12:24:27;6.63;76.58
64652;HTU21D;51062;45.120;37.660;2022-12-24T12:27:16;6.65;76.55
64652;HTU21D;51062;45.120;37.660;2022-12-24T12:29:57;6.67;76.55
64652;HTU21D;51062;45.120;37.660;2022-12-24T12:32:34;6.67;76.54
64652;HTU21D;51062;45.120;37.660;2022-12-24T12:35:14;6.69;76.54
64652;HTU21D;51062;45.120;37.660;2022-12-24T12:37:47;6.71;76.53
64652;HTU21D;51062;45.120;37.660;2022-12-24T12:40:16;6.71;76.52
64652;HTU21D;51062;45.120;37.660;2022-12-24T12:54:53;6.75;76.57
64652;HTU21D;51062;45.120;37.660;2022-12-24T12:57:29;6.75;76.57
64652;HTU21D;51062;45.120;37.660;2022-12-24T13:17:13;6.72;76.53
64652;HTU21D;51062;45.120;37.660;2022-12-24T13:22:29;6.69;76.42
64652;HTU21D;51062;45.120;37.660;2022-12-24T13:24:55;6.64;76.42
64652;HTU21D;51062;45.120;37.660;2022-12-24T13:27:34;6.59;76.44
64652;HTU21D;51062;45.120;37.660;2022-12-24T13:30:00;6.55;76.44
64652;HTU21D;51062;45.120;37.660;2022-12-24T13:32:49;6.51;76.52
64652;HTU21D;51062;45.120;37.660;2022-12-24T13:37:46;6.49;76.58
64652;HTU21D;51062;45.120;37.660;2022-12-24T13:50:51;6.50;76.60
64652;HTU21D;51062;45.120;37.660;2022-12-24T13:53:39;6.50;76.59
64652;HTU21D;51062;45.120;37.660;2022-12-24T13:56:08;6.49;76.56
64652;HTU21D;51062;45.120;37.660;2022-12-24T13:58:37;6.49;76.57
64652;HTU21D;51062;45.120;37.660;2022-12-24T14:01:08;6.48;76.57
64652;HTU21D;51062;45.120;37.660;2022-12-24T14:03:45;6.44;76.58
64652;HTU21D;51062;45.120;37.660;2022-12-24T14:06:38;6.42;76.58
64652;HTU21D;51062;45.120;37.660;2022-12-24T14:14:28;6.37;76.57
64652;HTU21D;51062;45.120;37.660;2022-12-24T14:16:59;6.34;76.56
64652;HTU21D;51062;45.120;37.660;2022-12-24T14:22:27;6.26;76.61
64652;HTU21D;51062;45.120;37.660;2022-12-24T14:25:17;6.23;76.64
64652;HTU21D;51062;45.120;37.660;2022-12-24T14:27:47;6.17;76.65
64652;HTU21D;51062;45.120;37.660;2022-12-24T14:32:44;6.15;76.73
64652;HTU21D;51062;45.120;37.660;2022-12-24T14:35:19;6.14;76.75
64652;HTU21D;51062;45.120;37.660;2022-12-24T14:37:59;6.14;76.73
64652;HTU21D;51062;45.120;37.660;2022-12-24T14:40:28;6.12;76.76
64652;HTU21D;51062;45.120;37.660;2022-12-24T14:43:22;6.12;76.78
64652;HTU21D;51062;45.120;37.660;2022-12-24T14:54:37;6.09;76.76
64652;HTU21D;51062;45.120;37.660;2022-12-24T14:59:56;6.07;76.79
64652;HTU21D;51062;45.120;37.660;2022-12-24T15:05:16;6.04;76.80
64652;HTU21D;51062;45.120;37.660;2022-12-24T15:07:59;6.02;76.87
64652;HTU21D;51062;45.120;37.660;2022-12-24T15:10:33;6.02;76.89
64652;HTU21D;51062;45.120;37.660;2022-12-24T15:13:25;6.02;76.91
64652;HTU21D;51062;45.120;37.660;2022-12-24T15:15:55;6.02;76.88
64652;HTU21D;51062;45.120;37.660;2022-12-24T15:18:25;6.01;76.86
64652;HTU21D;51062;45.120;37.660;2022-12-24T15:20:54;6.00;76.78
64652;HTU21D;51062;45.120;37.660;2022-12-24T15:23:35;5.96;76.71
64652;HTU21D;51062;45.120;37.660;2022-12-24T15:26:10;5.92;76.71
64652;HTU21D;51062;45.120;37.660;2022-12-24T15:28:39;5.86;76.79
64652;HTU21D;51062;45.120;37.660;2022-12-24T15:31:30;5.85;76.90
64652;HTU21D;51062;45.120;37.660;2022-12-24T15:33:56;5.82;76.99
64652;HTU21D;51062;45.120;37.660;2022-12-24T15:36:36;5.80;77.08
64652;HTU21D;51062;45.120;37.660;2022-12-24T15:39:07;5.79;77.10
64652;HTU21D;51062;45.120;37.660;2022-12-24T15:41:38;5.77;77.10
64652;HTU21D;51062;45.120;37.660;2022-12-24T15:44:28;5.70;77.02
64652;HTU21D;51062;45.120;37.660;2022-12-24T15:46:59;5.64;76.98
64652;HTU21D;51062;45.120;37.660;2022-12-24T15:49:27;5.59;76.99
64652;HTU21D;51062;45.120;37.660;2022-12-24T15:52:05;5.52;77.01
64652;HTU21D;51062;45.120;37.660;2022-12-24T15:54:32;5.47;76.99
64652;HTU21D;51062;45.120;37.660;2022-12-24T15:56:59;5.43;77.02
64652;HTU21D;51062;45.120;37.660;2022-12-24T15:59:36;5.38;77.05
64652;HTU21D;51062;45.120;37.660;2022-12-24T16:04:47;5.28;77.11
64652;HTU21D;51062;45.120;37.660;2022-12-24T16:07:26;5.25;77.17
64652;HTU21D;51062;45.120;37.660;2022-12-24T16:10:23;5.20;77.15
64652;HTU21D;51062;45.120;37.660;2022-12-24T16:12:49;5.17;77.15
64652;HTU21D;51062;45.120;37.660;2022-12-24T16:15:16;5.13;77.19
64652;HTU21D;51062;45.120;37.660;2022-12-24T16:17:47;5.11;77.23
64652;HTU21D;51062;45.120;37.660;2022-12-24T16:20:20;5.09;77.24
64652;HTU21D;51062;45.120;37.660;2022-12-24T16:22:48;5.07;77.27
64652;HTU21D;51062;45.120;37.660;2022-12-24T16:25:21;5.05;77.34
64652;HTU21D;51062;45.120;37.660;2022-12-24T16:27:51;5.05;77.37
64652;HTU21D;51062;45.120;37.660;2022-12-24T16:30:18;5.06;77.38
64652;HTU21D;51062;45.120;37.660;2022-12-24T16:32:46;5.07;77.39
64652;HTU21D;51062;45.120;37.660;2022-12-24T16:35:26;5.09;77.46
64652;HTU21D;51062;45.120;37.660;2022-12-24T16:37:53;5.12;77.42
64652;HTU21D;51062;45.120;37.660;2022-12-24T16:40:20;5.16;77.40
64652;HTU21D;51062;45.120;37.660;2022-12-24T16:42:46;5.18;77.37
64652;HTU21D;51062;45.120;37.660;2022-12-24T16:45:33;5.21;77.39
64652;HTU21D;51062;45.120;37.660;2022-12-24T16:48:00;5.23;77.38
64652;HTU21D;51062;45.120;37.660;2022-12-24T16:50:26;5.25;77.37
64652;HTU21D;51062;45.120;37.660;2022-12-24T16:52:53;5.30;77.36
64652;HTU21D;51062;45.120;37.660;2022-12-24T16:55:19;5.31;77.34
64652;HTU21D;51062;45.120;37.660;2022-12-24T16:57:45;5.33;77.33
64652;HTU21D;51062;45.120;37.660;2022-12-24T17:00:17;5.34;77.37
64652;HTU21D;51062;45.120;37.660;2022-12-24T17:02:45;5.36;77.37
64652;HTU21D;51062;45.120;37.660;2022-12-24T17:05:12;5.38;77.40
64652;HTU21D;51062;45.120;37.660;2022-12-24T17:07:38;5.39;77.44
64652;HTU21D;51062;45.120;37.660;2022-12-24T17:10:08;5.45;77.42
64652;HTU21D;51062;45.120;37.660;2022-12-24T17:12:34;5.49;77.38
64652;HTU21D;51062;45.120;37.660;2022-12-24T17:15:00;5.50;77.35
64652;HTU21D;51062;45.120;37.660;2022-12-24T17:17:28;5.52;77.31
64652;HTU21D;51062;45.120;37.660;2022-12-24T17:19:55;5.51;77.30
64652;HTU21D;51062;45.120;37.660;2022-12-24T17:22:22;5.51;77.28
64652;HTU21D;51062;45.120;37.660;2022-12-24T17:24:48;5.51;77.23
64652;HTU21D;51062;45.120;37.660;2022-12-24T17:27:15;5.48;77.22
64652;HTU21D;51062;45.120;37.660;2022-12-24T17:29:41;5.45;77.22
64652;HTU21D;51062;45.120;37.660;2022-12-24T17:32:07;5.39;77.24
64652;HTU21D;51062;45.120;37.660;2022-12-24T17:34:33;5.37;77.26
64652;HTU21D;51062;45.120;37.660;2022-12-24T17:36:59;5.35;77.27
64652;HTU21D;51062;45.120;37.660;2022-12-24T17:39:45;5.31;77.31
64652;HTU21D;51062;45.120;37.660;2022-12-24T17:42:11;5.30;77.34
64652;HTU21D;51062;45.120;37.660;2022-12-24T17:44:37;5.30;77.37
64652;HTU21D;51062;45.120;37.660;2022-12-24T17:47:04;5.25;77.39
64652;HTU21D;51062;45.120;37.660;2022-12-24T17:49:31;5.23;77.44
64652;HTU21D;51062;45.120;37.660;2022-12-24T17:51:57;5.20;77.45
64652;HTU21D;51062;45.120;37.660;2022-12-24T17:54:23;5.19;77.50
64652;HTU21D;51062;45.120;37.660;2022-12-24T17:56:49;5.15;77.60
64652;HTU21D;51062;45.120;37.660;2022-12-24T17:59:15;5.19;77.64